Aviation Digital Data Service (ADDS)

Output produced by METARs form (0951 UTC 21 October 2019)
found at http://aviationweather.gov/metar/data/
 
TAF EPDA 210800Z 2109/2118 09010KT 8000 NSC 
     BECMG 2115/2117 17005KT 
     PROB40 2116/2118 5000 BR